createdAt,value
2022-08-20T00:01:04.534Z,75746.19
2022-08-20T00:03:37.743Z,75764.06
2022-08-20T00:06:11.679Z,75754.13
2022-08-20T00:08:39.097Z,75774.00
2022-08-20T00:11:08.121Z,75752.13
2022-08-20T00:13:39.753Z,75752.13
2022-08-20T00:16:07.381Z,75756.13
2022-08-20T00:18:37.035Z,75750.16
2022-08-20T00:21:07.487Z,75730.28
2022-08-20T00:23:40.560Z,75744.19
2022-08-20T00:26:07.865Z,75740.22
2022-08-20T00:28:35.159Z,75752.13
2022-08-20T00:31:05.035Z,75758.09
2022-08-20T00:33:32.221Z,75744.19
2022-08-20T00:35:59.494Z,75758.09
2022-08-20T00:38:26.079Z,75738.22
2022-08-20T00:40:57.693Z,75748.16
2022-08-20T00:43:32.147Z,75760.09
2022-08-20T00:46:31.270Z,75758.09
2022-08-20T00:49:01.772Z,75762.06
2022-08-20T00:51:49.638Z,75774.00
2022-08-20T00:54:26.544Z,75764.06
2022-08-20T00:56:58.325Z,75760.09
2022-08-20T00:59:29.849Z,75758.09
2022-08-20T01:01:57.833Z,75750.16
2022-08-20T01:04:31.440Z,75740.22
2022-08-20T01:06:57.971Z,75754.13
2022-08-20T01:09:33.404Z,75744.19
2022-08-20T01:12:11.802Z,75752.13
2022-08-20T01:14:46.229Z,75756.13
2022-08-20T01:17:18.548Z,75762.06
2022-08-20T01:19:50.271Z,75746.19
2022-08-20T01:22:42.378Z,75738.22
2022-08-20T01:25:16.756Z,75740.22
2022-08-20T01:27:44.771Z,75746.19
2022-08-20T01:30:12.676Z,75770.03
2022-08-20T01:32:39.530Z,75762.06
2022-08-20T01:35:08.937Z,75740.22
2022-08-20T01:37:35.462Z,75760.09
2022-08-20T01:40:04.716Z,75768.03
2022-08-20T01:42:58.590Z,75756.13
2022-08-20T01:45:27.974Z,75772.00
2022-08-20T01:47:57.537Z,75752.13
2022-08-20T01:50:27.859Z,75764.06
2022-08-20T01:53:02.433Z,75777.97
2022-08-20T01:55:29.139Z,75758.09
2022-08-20T01:57:56.536Z,75774.00
2022-08-20T02:00:24.504Z,75772.00
2022-08-20T02:02:52.027Z,75774.00
2022-08-20T02:05:20.254Z,75772.00
2022-08-20T02:07:47.130Z,75768.03
2022-08-20T02:10:16.499Z,75795.84
2022-08-20T02:12:43.436Z,75801.81
2022-08-20T02:15:11.697Z,75809.75
2022-08-20T02:17:39.476Z,75813.72
2022-08-20T02:20:13.112Z,75825.66
2022-08-20T02:22:49.277Z,75813.72
2022-08-20T02:25:19.188Z,75811.75
2022-08-20T02:27:48.633Z,75813.72
2022-08-20T02:31:08.375Z,75817.69
2022-08-20T02:33:35.645Z,75811.75
2022-08-20T02:36:06.527Z,75823.66
2022-08-20T02:38:35.036Z,75809.75
2022-08-20T02:41:02.365Z,75801.81
2022-08-20T02:43:29.566Z,75831.59
2022-08-20T02:45:56.867Z,75829.63
2022-08-20T02:48:23.963Z,75839.56
2022-08-20T02:50:54.742Z,75839.56
2022-08-20T02:53:23.121Z,75815.72
2022-08-20T02:55:50.559Z,75805.78
2022-08-20T02:58:18.393Z,75811.75
2022-08-20T03:01:07.719Z,75815.72
2022-08-20T03:03:37.109Z,75811.75
2022-08-20T03:06:12.217Z,75819.69
2022-08-20T03:08:51.477Z,75815.72
2022-08-20T03:11:19.200Z,75819.69
2022-08-20T03:13:45.743Z,75833.59
2022-08-20T03:16:12.495Z,75849.50
2022-08-20T03:18:43.487Z,75833.59
2022-08-20T03:21:11.580Z,75849.50
2022-08-20T03:23:42.112Z,75841.53
2022-08-20T03:26:11.636Z,75839.56
2022-08-20T03:28:38.379Z,75839.56
2022-08-20T03:31:05.623Z,75829.63
2022-08-20T03:33:32.451Z,75837.56
2022-08-20T03:35:59.147Z,75831.59
2022-08-20T03:38:32.395Z,75831.59
2022-08-20T03:41:00.956Z,75839.56
2022-08-20T03:43:27.964Z,75841.53
2022-08-20T03:45:54.900Z,75839.56
2022-08-20T03:48:21.956Z,75843.53
2022-08-20T03:50:51.266Z,75833.59
2022-08-20T03:53:18.376Z,75823.66
2022-08-20T03:55:53.893Z,75845.50
2022-08-20T03:58:21.860Z,75837.56
2022-08-20T04:01:02.329Z,75849.50
2022-08-20T04:03:28.968Z,75843.53
2022-08-20T04:05:55.521Z,75861.41
2022-08-20T04:08:26.992Z,75883.25
2022-08-20T04:10:57.630Z,75885.25
2022-08-20T04:13:26.520Z,75899.16
2022-08-20T04:16:11.259Z,75897.16
2022-08-20T04:18:41.048Z,75903.13
2022-08-20T04:21:11.033Z,75889.22
2022-08-20T04:23:37.590Z,75897.16
2022-08-20T04:26:04.660Z,75895.19
2022-08-20T04:28:31.154Z,75877.31
2022-08-20T04:30:59.678Z,75881.28
2022-08-20T04:33:34.196Z,75869.34
2022-08-20T04:36:06.308Z,75871.34
2022-08-20T04:38:50.184Z,75867.38
2022-08-20T04:41:21.051Z,75885.25
2022-08-20T04:43:50.189Z,75889.22
2022-08-20T04:49:13.939Z,75893.19
2022-08-20T04:51:47.943Z,75891.22
2022-08-20T04:54:17.005Z,75883.25
2022-08-20T04:56:43.730Z,75871.34
2022-08-20T04:59:10.616Z,75883.25
2022-08-20T05:01:37.231Z,75875.31
2022-08-20T05:04:04.067Z,75855.44
2022-08-20T05:06:32.300Z,75875.31
2022-08-20T05:09:00.247Z,75853.47
2022-08-20T05:11:33.517Z,75843.53
2022-08-20T05:14:05.584Z,75845.50
2022-08-20T05:16:37.944Z,75827.63
2022-08-20T05:19:06.021Z,75835.59
2022-08-20T05:21:32.564Z,75833.59
2022-08-20T05:23:59.592Z,75839.56
2022-08-20T05:26:26.512Z,75835.59
2022-08-20T05:28:58.013Z,75841.53
2022-08-20T05:31:31.629Z,75823.66
2022-08-20T05:34:01.400Z,75835.59
2022-08-20T05:36:28.109Z,75827.63
2022-08-20T05:38:54.773Z,75827.63
2022-08-20T05:41:29.043Z,75841.53
2022-08-20T05:44:02.803Z,75867.38
2022-08-20T05:46:32.609Z,75855.44
2022-08-20T05:49:01.759Z,75843.53
2022-08-20T05:51:29.880Z,75859.41
2022-08-20T05:53:59.312Z,75859.41
2022-08-20T05:56:30.367Z,75839.56
2022-08-20T05:59:00.403Z,75833.59
2022-08-20T06:01:27.142Z,75817.69
2022-08-20T06:04:12.458Z,75811.75
2022-08-20T06:06:45.651Z,75823.66
2022-08-20T06:09:28.001Z,75827.63
2022-08-20T06:12:04.693Z,75809.75
2022-08-20T06:14:32.466Z,75815.72
2022-08-20T06:17:22.159Z,75809.75
2022-08-20T06:19:49.791Z,75815.72
2022-08-20T06:22:18.844Z,75815.72
2022-08-20T06:24:53.158Z,75833.59
2022-08-20T06:27:20.194Z,75831.59
2022-08-20T06:29:47.851Z,75817.69
2022-08-20T06:32:15.191Z,75839.56
2022-08-20T06:34:49.051Z,75827.63
2022-08-20T06:37:23.541Z,75845.50
2022-08-20T06:40:02.597Z,75841.53
2022-08-20T06:42:29.640Z,75831.59
2022-08-20T06:44:56.176Z,75833.59
2022-08-20T06:47:23.295Z,75835.59
2022-08-20T06:49:49.912Z,75847.50
2022-08-20T06:52:17.211Z,75837.56
2022-08-20T06:54:45.073Z,75843.53
2022-08-20T06:57:11.792Z,75847.50
2022-08-20T06:59:38.561Z,75861.41
2022-08-20T07:02:05.805Z,75847.50
2022-08-20T07:04:32.467Z,75861.41
2022-08-20T07:06:59.555Z,75861.41
2022-08-20T07:09:27.540Z,75841.53
2022-08-20T07:11:54.212Z,75843.53
2022-08-20T07:14:20.815Z,75849.50
2022-08-20T07:16:47.404Z,75849.50
2022-08-20T07:19:15.120Z,75853.47
2022-08-20T07:21:41.700Z,75875.31
2022-08-20T07:24:09.816Z,75887.22
2022-08-20T07:26:36.598Z,75891.22
2022-08-20T07:29:03.876Z,75877.31
2022-08-20T07:31:49.181Z,75885.25
2022-08-20T07:34:16.777Z,75893.19
2022-08-20T07:36:48.430Z,75899.16
2022-08-20T07:39:15.256Z,75899.16
2022-08-20T07:41:43.443Z,75893.19
2022-08-20T07:44:15.613Z,75891.22
2022-08-20T07:46:43.065Z,75885.25
2022-08-20T07:49:11.965Z,75861.41
2022-08-20T07:51:38.528Z,75897.16
2022-08-20T07:54:06.040Z,75867.38
2022-08-20T07:56:32.540Z,75849.50
2022-08-20T07:59:01.537Z,75857.44
2022-08-20T08:01:30.928Z,75865.38
2022-08-20T08:03:59.630Z,75843.53
2022-08-20T08:06:30.169Z,75833.59
2022-08-20T08:09:14.173Z,75819.69
2022-08-20T08:11:47.422Z,75809.75
2022-08-20T08:14:16.747Z,75827.63
2022-08-20T08:16:45.474Z,75823.66
2022-08-20T08:19:15.485Z,75813.72
2022-08-20T08:21:44.306Z,75807.75
2022-08-20T08:24:14.346Z,75809.75
2022-08-20T08:26:44.295Z,75803.78
2022-08-20T08:29:12.170Z,75791.88
2022-08-20T08:31:40.962Z,75819.69
2022-08-20T08:34:07.477Z,75805.78
2022-08-20T08:36:34.047Z,75839.56
2022-08-20T08:39:00.600Z,75825.66
2022-08-20T08:41:49.611Z,75821.69
2022-08-20T08:44:27.314Z,75833.59
2022-08-20T08:46:58.899Z,75835.59
2022-08-20T08:49:35.156Z,75845.50
2022-08-20T08:52:16.558Z,75837.56
2022-08-20T08:54:49.013Z,75829.63
2022-08-20T08:57:16.494Z,75837.56
2022-08-20T08:59:52.370Z,75853.47
2022-08-20T09:02:32.600Z,75865.38
2022-08-20T09:05:03.033Z,75875.31
2022-08-20T09:07:32.668Z,75879.28
2022-08-20T09:10:00.013Z,75897.16
2022-08-20T09:12:27.954Z,75885.25
2022-08-20T09:14:54.578Z,75901.16
2022-08-20T09:17:22.757Z,75895.19
2022-08-20T09:19:50.330Z,75887.22
2022-08-20T09:22:19.748Z,75877.31
2022-08-20T09:24:46.462Z,75891.22
2022-08-20T09:27:13.130Z,75863.41
2022-08-20T09:29:40.017Z,75855.44
2022-08-20T09:32:13.999Z,75845.50
2022-08-20T09:34:57.253Z,75845.50
2022-08-20T09:37:36.661Z,75827.63
2022-08-20T09:40:37.415Z,75807.75
2022-08-20T09:43:26.941Z,75805.78
2022-08-20T09:46:10.547Z,75819.69
2022-08-20T09:54:46.362Z,75775.97
2022-08-20T09:57:15.386Z,75740.22
2022-08-20T09:59:42.427Z,75754.13
2022-08-20T10:02:09.150Z,75736.25
2022-08-20T10:04:35.784Z,75754.13
2022-08-20T10:07:08.519Z,75758.09
2022-08-20T10:09:40.022Z,75762.06
2022-08-20T10:12:11.406Z,75760.09
2022-08-20T10:14:37.968Z,75775.97
2022-08-20T10:17:07.768Z,75760.09
2022-08-20T10:19:34.650Z,75754.13
2022-08-20T10:22:01.667Z,75758.09
2022-08-20T10:24:28.920Z,75738.22
2022-08-20T10:26:57.499Z,75706.44
2022-08-20T10:29:25.024Z,75702.47
2022-08-20T10:31:52.668Z,75692.53
2022-08-20T10:34:19.535Z,75684.59
2022-08-20T10:36:47.183Z,75686.56
2022-08-20T10:39:13.827Z,75690.56
2022-08-20T10:41:40.747Z,75690.56
2022-08-20T10:44:07.694Z,75708.44
2022-08-20T10:46:35.039Z,75686.56
2022-08-20T10:49:01.773Z,75698.50
2022-08-20T10:51:32.422Z,75678.63
2022-08-20T10:53:59.871Z,75702.47
2022-08-20T10:56:26.446Z,75738.22
2022-08-20T10:58:55.571Z,75724.31
2022-08-20T11:01:31.530Z,75736.25
2022-08-20T11:04:00.858Z,75732.28
2022-08-20T11:06:27.375Z,75764.06
2022-08-20T11:08:53.966Z,75775.97
2022-08-20T11:11:26.372Z,75760.09
2022-08-20T11:13:52.920Z,75783.94
2022-08-20T11:16:19.511Z,75752.13
2022-08-20T11:18:47.513Z,75762.06
2022-08-20T11:21:14.733Z,75754.13
2022-08-20T11:23:41.276Z,75740.22
2022-08-20T11:26:08.460Z,75734.25
2022-08-20T11:28:35.244Z,75746.19
2022-08-20T11:31:02.439Z,75732.28
2022-08-20T11:33:32.455Z,75738.22
2022-08-20T11:35:59.024Z,75738.22
2022-08-20T11:38:25.940Z,75740.22
2022-08-20T11:40:52.475Z,75754.13
2022-08-20T11:43:19.088Z,75748.16
2022-08-20T11:45:49.720Z,75770.03
2022-08-20T11:48:24.543Z,75748.16
2022-08-20T11:50:51.129Z,75744.19
2022-08-20T11:53:18.036Z,75728.31
2022-08-20T11:55:44.786Z,75758.09
2022-08-20T11:58:12.511Z,75762.06
2022-08-20T12:00:39.802Z,75752.13
2022-08-20T12:03:08.912Z,75746.19
2022-08-20T12:05:37.316Z,75748.16
2022-08-20T12:08:05.894Z,75760.09
2022-08-20T12:10:34.042Z,75758.09
2022-08-20T12:13:01.713Z,75748.16
2022-08-20T12:15:31.177Z,75772.00
2022-08-20T12:17:57.892Z,75752.13
2022-08-20T12:20:27.228Z,75762.06
2022-08-20T12:22:54.106Z,75764.06
2022-08-20T12:25:20.754Z,75779.94
2022-08-20T12:27:47.393Z,75768.03
2022-08-20T12:30:17.824Z,75752.13
2022-08-20T12:32:44.842Z,75750.16
2022-08-20T12:35:14.904Z,75740.22
2022-08-20T12:37:43.025Z,75750.16
2022-08-20T12:40:14.069Z,75730.28
2022-08-20T12:42:40.796Z,75734.25
2022-08-20T12:45:08.028Z,75722.34
2022-08-20T12:47:37.143Z,75718.38
2022-08-20T12:50:10.986Z,75728.31
2022-08-20T12:52:38.806Z,75720.34
2022-08-20T12:55:07.741Z,75720.34
2022-08-20T12:57:41.844Z,75730.28
2022-08-20T13:00:22.627Z,75738.22
2022-08-20T13:02:53.116Z,75736.25
2022-08-20T13:05:20.555Z,75732.28
2022-08-20T13:07:48.100Z,75742.19
2022-08-20T13:10:21.808Z,75748.16
2022-08-20T13:12:49.087Z,75736.25
2022-08-20T13:15:16.040Z,75744.19
2022-08-20T13:17:43.071Z,75760.09
2022-08-20T13:20:16.136Z,75772.00
2022-08-20T13:22:43.181Z,75768.03
2022-08-20T13:25:11.389Z,75760.09
2022-08-20T13:27:41.227Z,75772.00
2022-08-20T13:30:09.425Z,75770.03
2022-08-20T13:32:36.110Z,75775.97
2022-08-20T13:35:02.804Z,75805.78
2022-08-20T13:37:30.312Z,75791.88
2022-08-20T13:40:15.157Z,75805.78
2022-08-20T13:42:44.970Z,75831.59
2022-08-20T13:45:39.985Z,75841.53
2022-08-20T13:48:21.515Z,75819.69
2022-08-20T13:50:48.098Z,75821.69
2022-08-20T13:53:15.249Z,75817.69
2022-08-20T13:55:42.123Z,75827.63
2022-08-20T13:58:08.786Z,75807.75
2022-08-20T14:00:36.635Z,75823.66
2022-08-20T14:03:05.673Z,75815.72
2022-08-20T14:05:33.435Z,75823.66
2022-08-20T14:08:18.355Z,75849.50
2022-08-20T14:10:47.205Z,75843.53
2022-08-20T14:13:20.090Z,75867.38
2022-08-20T14:15:50.307Z,75867.38
2022-08-20T14:18:16.918Z,75873.31
2022-08-20T14:20:45.416Z,75881.28
2022-08-20T14:23:12.562Z,75887.22
2022-08-20T14:25:39.155Z,75899.16
2022-08-20T14:28:18.554Z,75883.25
2022-08-20T14:30:46.643Z,75897.16
2022-08-20T14:33:19.366Z,75905.13
2022-08-20T14:35:45.903Z,75915.06
2022-08-20T14:38:12.417Z,75926.97
2022-08-20T14:40:38.931Z,75952.81
2022-08-20T14:43:05.531Z,75962.75
2022-08-20T14:45:32.288Z,75962.75
2022-08-20T14:47:59.760Z,75976.66
2022-08-20T14:50:31.732Z,75990.56
2022-08-20T14:52:58.900Z,76006.44
2022-08-20T14:55:29.466Z,76012.41
2022-08-20T14:57:56.894Z,76000.47
2022-08-20T15:00:30.044Z,76010.41
2022-08-20T15:02:57.905Z,76030.28
2022-08-20T15:05:24.655Z,76044.19
2022-08-20T15:07:52.986Z,76046.19
2022-08-20T15:10:26.990Z,76052.16
2022-08-20T15:12:54.469Z,76058.09
2022-08-20T15:15:22.167Z,76040.22
2022-08-20T15:17:55.107Z,76044.19
2022-08-20T15:20:26.449Z,76046.19
2022-08-20T15:22:54.247Z,76042.22
2022-08-20T15:25:23.866Z,76042.22
2022-08-20T15:27:50.745Z,76058.09
2022-08-20T15:30:20.524Z,76070.03
2022-08-20T15:32:51.426Z,76074.00
2022-08-20T15:35:21.380Z,76068.03
2022-08-20T15:37:50.103Z,76070.03
2022-08-20T15:40:23.498Z,76036.25
2022-08-20T15:42:53.972Z,76066.06
2022-08-20T15:45:21.909Z,76066.06
2022-08-20T15:48:00.332Z,76066.06
2022-08-20T15:50:47.394Z,76056.13
2022-08-20T15:53:24.847Z,76060.09
2022-08-20T15:56:29.994Z,76044.19
2022-08-20T15:59:14.524Z,76042.22
2022-08-20T16:01:46.980Z,76042.22
2022-08-20T16:04:25.016Z,76038.22
2022-08-20T16:06:57.089Z,76062.06
2022-08-20T16:09:42.098Z,76034.25
2022-08-20T16:12:12.401Z,76046.19
2022-08-20T16:14:45.889Z,76050.16
2022-08-20T16:17:17.778Z,76054.13
2022-08-20T16:19:56.156Z,76056.13
2022-08-20T16:22:23.453Z,76056.13
2022-08-20T16:24:50.276Z,76042.22
2022-08-20T16:27:26.711Z,76040.22
2022-08-20T16:30:08.067Z,76054.13
2022-08-20T16:32:46.083Z,76024.31
2022-08-20T16:35:36.197Z,76034.25
2022-08-20T16:38:07.061Z,76040.22
2022-08-20T16:40:36.571Z,76050.16
2022-08-20T16:43:05.487Z,76060.09
2022-08-20T16:45:51.048Z,76072.00
2022-08-20T16:48:19.131Z,76070.03
2022-08-20T16:51:03.292Z,76066.06
2022-08-20T16:53:30.216Z,76066.06
2022-08-20T16:55:56.887Z,76046.19
2022-08-20T16:58:25.365Z,76046.19
2022-08-20T17:01:08.465Z,76050.16
2022-08-20T17:03:40.218Z,76068.03
2022-08-20T17:06:25.058Z,76079.97
2022-08-20T17:08:53.896Z,76066.06
2022-08-20T17:11:32.623Z,76052.16
2022-08-20T17:14:15.396Z,76074.00
2022-08-20T17:16:44.912Z,76076.00
2022-08-20T17:19:29.422Z,76077.97
2022-08-20T17:22:08.106Z,76064.06
2022-08-20T17:24:36.202Z,76066.06
2022-08-20T17:27:10.777Z,76077.97
2022-08-20T17:29:50.092Z,76068.03
2022-08-20T17:32:24.744Z,76054.13
2022-08-20T17:34:55.876Z,76056.13
2022-08-20T17:37:33.629Z,76062.06
2022-08-20T17:40:16.027Z,76074.00
2022-08-20T17:42:52.871Z,76091.88
2022-08-20T17:45:24.433Z,76111.75
2022-08-20T17:47:52.755Z,76103.81
2022-08-20T17:50:25.548Z,76087.91
2022-08-20T17:52:58.372Z,76101.81
2022-08-20T17:55:26.528Z,76095.84
2022-08-20T17:57:56.919Z,76087.91
2022-08-20T18:00:26.145Z,76109.75
2022-08-20T18:03:19.226Z,76095.84
2022-08-20T18:05:55.283Z,76099.81
2022-08-20T18:08:31.199Z,76107.78
2022-08-20T18:11:17.080Z,76107.78
2022-08-20T18:14:17.685Z,76115.72
2022-08-20T18:17:00.926Z,76127.66
2022-08-20T18:19:52.195Z,76129.63
2022-08-20T18:22:24.736Z,76119.69
2022-08-20T18:25:17.279Z,76115.72
2022-08-20T18:27:49.441Z,76091.88
2022-08-20T18:30:22.623Z,76087.91
2022-08-20T18:33:01.569Z,76097.84
2022-08-20T18:35:39.642Z,76127.66
2022-08-20T18:38:26.380Z,76137.59
2022-08-20T18:40:55.180Z,76113.75
2022-08-20T18:43:30.510Z,76121.69
2022-08-20T18:46:13.325Z,76119.69
2022-08-20T18:48:51.312Z,76129.63
2022-08-20T18:51:21.349Z,76117.72
2022-08-20T18:53:51.837Z,76105.78
2022-08-20T18:56:34.267Z,76121.69
2022-08-20T18:59:09.156Z,76125.66
2022-08-20T19:01:37.769Z,76129.63
2022-08-20T19:04:20.259Z,76125.66
2022-08-20T19:06:57.437Z,76111.75
2022-08-20T19:09:34.048Z,76133.59
2022-08-20T19:12:37.679Z,76135.59
2022-08-20T19:15:19.070Z,76133.59
2022-08-20T19:18:05.886Z,76131.63
2022-08-20T19:20:35.904Z,76129.63
2022-08-20T19:23:09.478Z,76129.63
2022-08-20T19:25:40.736Z,76119.69
2022-08-20T19:28:21.546Z,76129.63
2022-08-20T19:30:48.645Z,76143.53
2022-08-20T19:33:25.385Z,76155.47
2022-08-20T19:35:52.669Z,76149.50
2022-08-20T19:38:28.602Z,76135.59
2022-08-20T19:41:04.314Z,76127.66
2022-08-20T19:43:43.259Z,76127.66
2022-08-20T19:46:10.219Z,76123.66
2022-08-20T19:49:01.282Z,76131.63
2022-08-20T19:51:45.751Z,76125.66
2022-08-20T19:54:27.024Z,76127.66
2022-08-20T19:57:01.226Z,76109.75
2022-08-20T19:59:27.810Z,76099.81
2022-08-20T20:02:01.618Z,76117.72
2022-08-20T20:04:41.182Z,76115.72
2022-08-20T20:07:38.789Z,76115.72
2022-08-20T20:10:08.659Z,76119.69
2022-08-20T20:12:35.315Z,76127.66
2022-08-20T20:15:02.930Z,76129.63
2022-08-20T20:17:34.791Z,76119.69
2022-08-20T20:20:15.436Z,76125.66
2022-08-20T20:23:13.124Z,76147.50
2022-08-20T20:25:43.727Z,76143.53
2022-08-20T20:28:38.496Z,76125.66
2022-08-20T20:31:08.126Z,76135.59
2022-08-20T20:33:43.414Z,76131.63
2022-08-20T20:36:17.876Z,76139.56
2022-08-20T20:39:00.099Z,76137.59
2022-08-20T20:41:29.368Z,76139.56
2022-08-20T20:44:06.572Z,76127.66
2022-08-20T20:46:35.603Z,76141.56
2022-08-20T20:49:15.513Z,76135.59
2022-08-20T20:51:54.327Z,76143.53
2022-08-20T20:54:31.232Z,76145.53
2022-08-20T20:57:04.316Z,76149.50
2022-08-20T20:59:32.660Z,76143.53
2022-08-20T21:01:59.359Z,76143.53
2022-08-20T21:04:26.424Z,76135.59
2022-08-20T21:06:55.415Z,76131.63
2022-08-20T21:09:23.863Z,76137.59
2022-08-20T21:11:51.003Z,76143.53
2022-08-20T21:14:18.471Z,76133.59
2022-08-20T21:16:45.386Z,76131.63
2022-08-20T21:19:13.337Z,76139.56
2022-08-20T21:21:46.268Z,76147.50
2022-08-20T21:24:12.999Z,76149.50
2022-08-20T21:26:39.839Z,76153.47
2022-08-20T21:29:09.671Z,76151.50
2022-08-20T21:31:43.892Z,76137.59
2022-08-20T21:34:13.223Z,76139.56
2022-08-20T21:36:40.085Z,76125.66
2022-08-20T21:39:07.015Z,76129.63
2022-08-20T21:41:34.079Z,76123.66
2022-08-20T21:44:04.141Z,76123.66
2022-08-20T21:46:31.215Z,76113.75
2022-08-20T21:48:57.801Z,76133.59
2022-08-20T21:51:24.364Z,76127.66
2022-08-20T21:53:51.234Z,76121.69
2022-08-20T21:56:18.216Z,76123.66
2022-08-20T21:58:46.810Z,76127.66
2022-08-20T22:01:14.672Z,76135.59
2022-08-20T22:03:41.947Z,76141.56
2022-08-20T22:06:12.585Z,76141.56
2022-08-20T22:08:39.627Z,76147.50
2022-08-20T22:11:09.120Z,76149.50
2022-08-20T22:13:36.016Z,76161.44
2022-08-20T22:16:07.385Z,76143.53
2022-08-20T22:18:36.550Z,76133.59
2022-08-20T22:21:07.087Z,76143.53
2022-08-20T22:23:34.307Z,76139.56
2022-08-20T22:26:00.944Z,76141.56
2022-08-20T22:28:27.577Z,76143.53
2022-08-20T22:30:54.219Z,76133.59
2022-08-20T22:33:22.972Z,76135.59
2022-08-20T22:35:55.177Z,76133.59
2022-08-20T22:38:22.019Z,76131.63
2022-08-20T22:40:49.557Z,76127.66
2022-08-20T22:43:16.792Z,76097.84
2022-08-20T22:45:45.618Z,76093.88
2022-08-20T22:48:16.536Z,76109.75
2022-08-20T22:50:43.420Z,76097.84
2022-08-20T22:53:11.123Z,76109.75
2022-08-20T22:55:38.604Z,76129.63
2022-08-20T22:58:06.635Z,76131.63
2022-08-20T23:00:34.378Z,76125.66
2022-08-20T23:03:02.204Z,76123.66
2022-08-20T23:05:31.828Z,76123.66
2022-08-20T23:08:00.239Z,76119.69
2022-08-20T23:10:30.282Z,76117.72
2022-08-20T23:12:57.524Z,76123.66
2022-08-20T23:15:26.356Z,76127.66
2022-08-20T23:17:58.596Z,76115.72
2022-08-20T23:20:25.508Z,76153.47
2022-08-20T23:22:52.195Z,76135.59
2022-08-20T23:25:21.933Z,76123.66
2022-08-20T23:27:51.701Z,76147.50
2022-08-20T23:30:20.509Z,76167.38
2022-08-20T23:32:47.157Z,76151.50
2022-08-20T23:35:14.108Z,76125.66
2022-08-20T23:37:46.595Z,76099.81
2022-08-20T23:40:14.289Z,76135.59
2022-08-20T23:42:40.877Z,76147.50
2022-08-20T23:45:08.356Z,76167.38
2022-08-20T23:47:35.944Z,76171.34
2022-08-20T23:50:03.755Z,76139.56
2022-08-20T23:52:31.749Z,76183.28
2022-08-20T23:54:58.553Z,76165.41
2022-08-20T23:57:25.201Z,76185.25
2022-08-20T23:59:52.961Z,76189.25
